Bennett, Colorado
Current Conditions -  °F | °C
As of 2:39 AM on Thursday 18 Dec 2014 (Local Time) from KFTG Reporting Station
Scattered Clouds Scattered Clouds  
Wind Chill: 32°   Ceiling: Unl
Heat Index: 32°   Visibility: 10mi
Dew Point: 30°   Wind: 0mph
Humidity: 93%   Direction: NA
Pressure: 29.99"   Gusts: NA
Location:  39.76°N, 104.43°W
Report Text: KFTG 180939Z AUTO 00000KT 10SM SCT044 00/M01 A2999 RMK AO2
Loading
Personal Weather Stations






























Interactive Weather Map New forecast layout! Learn more

10-Day Weather Forecast

Advertisements
Track Severe Weather on mobile